sensor_id;sensor_type;location;lat;lon;timestamp;temperature;humidity
12156;DHT22;6141;49.092;8.516;2023-11-18T00:00:32;7.80;84.10
12156;DHT22;6141;49.092;8.516;2023-11-18T00:03:00;7.80;82.90
12156;DHT22;6141;49.092;8.516;2023-11-18T00:05:29;7.90;82.60
12156;DHT22;6141;49.092;8.516;2023-11-18T00:07:57;8.00;81.80
12156;DHT22;6141;49.092;8.516;2023-11-18T00:10:25;8.10;80.50
12156;DHT22;6141;49.092;8.516;2023-11-18T00:12:54;8.00;80.10
12156;DHT22;6141;49.092;8.516;2023-11-18T00:15:22;8.00;80.90
12156;DHT22;6141;49.092;8.516;2023-11-18T00:17:52;7.80;81.50
12156;DHT22;6141;49.092;8.516;2023-11-18T00:20:20;7.80;83.00
12156;DHT22;6141;49.092;8.516;2023-11-18T00:22:51;7.70;84.10
12156;DHT22;6141;49.092;8.516;2023-11-18T00:25:19;7.70;84.70
12156;DHT22;6141;49.092;8.516;2023-11-18T00:27:48;7.60;85.70
12156;DHT22;6141;49.092;8.516;2023-11-18T00:30:17;7.70;85.00
12156;DHT22;6141;49.092;8.516;2023-11-18T00:32:45;7.80;84.80
12156;DHT22;6141;49.092;8.516;2023-11-18T00:35:15;7.80;83.60
12156;DHT22;6141;49.092;8.516;2023-11-18T00:37:47;7.80;84.20
12156;DHT22;6141;49.092;8.516;2023-11-18T00:40:16;7.80;83.00
12156;DHT22;6141;49.092;8.516;2023-11-18T00:42:45;7.80;83.00
12156;DHT22;6141;49.092;8.516;2023-11-18T00:45:14;7.80;81.80
12156;DHT22;6141;49.092;8.516;2023-11-18T00:47:42;7.80;82.70
12156;DHT22;6141;49.092;8.516;2023-11-18T00:50:10;7.70;83.60
12156;DHT22;6141;49.092;8.516;2023-11-18T00:52:40;7.80;83.90
12156;DHT22;6141;49.092;8.516;2023-11-18T00:55:09;7.90;82.90
12156;DHT22;6141;49.092;8.516;2023-11-18T00:57:38;8.00;82.50
12156;DHT22;6141;49.092;8.516;2023-11-18T01:00:11;8.10;81.80
12156;DHT22;6141;49.092;8.516;2023-11-18T01:02:41;8.10;80.50
12156;DHT22;6141;49.092;8.516;2023-11-18T01:05:09;8.10;79.60
12156;DHT22;6141;49.092;8.516;2023-11-18T01:07:39;8.00;79.70
12156;DHT22;6141;49.092;8.516;2023-11-18T01:10:08;7.90;80.90
12156;DHT22;6141;49.092;8.516;2023-11-18T01:12:37;8.00;80.50
12156;DHT22;6141;49.092;8.516;2023-11-18T01:15:06;8.00;79.90
12156;DHT22;6141;49.092;8.516;2023-11-18T01:17:35;8.10;79.70
12156;DHT22;6141;49.092;8.516;2023-11-18T01:20:04;8.20;79.10
12156;DHT22;6141;49.092;8.516;2023-11-18T01:22:36;8.10;77.80
12156;DHT22;6141;49.092;8.516;2023-11-18T01:25:10;8.10;77.90
12156;DHT22;6141;49.092;8.516;2023-11-18T01:27:38;8.20;77.60
12156;DHT22;6141;49.092;8.516;2023-11-18T01:32:42;8.10;76.60
12156;DHT22;6141;49.092;8.516;2023-11-18T01:35:10;8.10;76.70
12156;DHT22;6141;49.092;8.516;2023-11-18T01:37:39;8.10;76.70
12156;DHT22;6141;49.092;8.516;2023-11-18T01:40:09;8.00;76.70
12156;DHT22;6141;49.092;8.516;2023-11-18T01:42:42;7.90;79.00
12156;DHT22;6141;49.092;8.516;2023-11-18T01:45:13;7.90;79.70
12156;DHT22;6141;49.092;8.516;2023-11-18T01:47:44;7.90;80.00
12156;DHT22;6141;49.092;8.516;2023-11-18T01:50:15;7.90;79.70
12156;DHT22;6141;49.092;8.516;2023-11-18T01:52:45;8.00;78.90
12156;DHT22;6141;49.092;8.516;2023-11-18T01:55:16;8.00;78.50
12156;DHT22;6141;49.092;8.516;2023-11-18T01:57:44;8.00;78.30
12156;DHT22;6141;49.092;8.516;2023-11-18T02:00:13;8.10;77.60
12156;DHT22;6141;49.092;8.516;2023-11-18T02:02:45;7.90;77.90
12156;DHT22;6141;49.092;8.516;2023-11-18T02:05:14;7.70;79.30
12156;DHT22;6141;49.092;8.516;2023-11-18T02:07:44;7.70;79.80
12156;DHT22;6141;49.092;8.516;2023-11-18T02:10:13;7.70;80.20
12156;DHT22;6141;49.092;8.516;2023-11-18T02:12:59;7.80;80.10
12156;DHT22;6141;49.092;8.516;2023-11-18T02:15:34;8.10;77.90
12156;DHT22;6141;49.092;8.516;2023-11-18T02:18:04;8.00;74.20
12156;DHT22;6141;49.092;8.516;2023-11-18T02:20:38;8.00;73.90
12156;DHT22;6141;49.092;8.516;2023-11-18T02:23:07;8.10;72.40
12156;DHT22;6141;49.092;8.516;2023-11-18T02:25:43;8.20;71.30
12156;DHT22;6141;49.092;8.516;2023-11-18T02:28:12;8.30;68.60
12156;DHT22;6141;49.092;8.516;2023-11-18T02:30:40;8.30;66.70
12156;DHT22;6141;49.092;8.516;2023-11-18T02:33:14;8.10;66.90
12156;DHT22;6141;49.092;8.516;2023-11-18T02:35:48;8.00;67.60
12156;DHT22;6141;49.092;8.516;2023-11-18T02:38:19;8.20;66.60
12156;DHT22;6141;49.092;8.516;2023-11-18T02:40:53;8.40;65.30
12156;DHT22;6141;49.092;8.516;2023-11-18T02:43:26;8.40;63.40
12156;DHT22;6141;49.092;8.516;2023-11-18T02:45:57;8.50;64.80
12156;DHT22;6141;49.092;8.516;2023-11-18T02:48:26;8.90;62.30
12156;DHT22;6141;49.092;8.516;2023-11-18T02:50:56;8.80;62.70
12156;DHT22;6141;49.092;8.516;2023-11-18T02:53:24;8.60;63.20
12156;DHT22;6141;49.092;8.516;2023-11-18T02:55:55;8.50;64.20
12156;DHT22;6141;49.092;8.516;2023-11-18T02:58:29;8.60;65.80
12156;DHT22;6141;49.092;8.516;2023-11-18T03:00:57;8.90;64.50
12156;DHT22;6141;49.092;8.516;2023-11-18T03:03:26;8.80;64.00
12156;DHT22;6141;49.092;8.516;2023-11-18T03:05:55;8.70;64.60
12156;DHT22;6141;49.092;8.516;2023-11-18T03:08:24;8.80;64.60
12156;DHT22;6141;49.092;8.516;2023-11-18T03:10:52;9.00;63.30
12156;DHT22;6141;49.092;8.516;2023-11-18T03:13:22;8.70;64.90
12156;DHT22;6141;49.092;8.516;2023-11-18T03:15:51;8.80;65.10
12156;DHT22;6141;49.092;8.516;2023-11-18T03:18:19;8.90;64.00
12156;DHT22;6141;49.092;8.516;2023-11-18T03:20:47;8.60;64.90
12156;DHT22;6141;49.092;8.516;2023-11-18T03:23:16;8.40;67.80
12156;DHT22;6141;49.092;8.516;2023-11-18T03:25:44;8.50;68.60
12156;DHT22;6141;49.092;8.516;2023-11-18T03:28:13;8.90;66.10
12156;DHT22;6141;49.092;8.516;2023-11-18T03:30:43;9.10;64.20
12156;DHT22;6141;49.092;8.516;2023-11-18T03:33:12;9.30;62.00
12156;DHT22;6141;49.092;8.516;2023-11-18T03:35:40;9.40;60.90
12156;DHT22;6141;49.092;8.516;2023-11-18T03:38:09;9.40;60.70
12156;DHT22;6141;49.092;8.516;2023-11-18T03:40:37;9.40;60.70
12156;DHT22;6141;49.092;8.516;2023-11-18T03:43:05;9.30;61.30
12156;DHT22;6141;49.092;8.516;2023-11-18T03:45:34;9.40;60.90
12156;DHT22;6141;49.092;8.516;2023-11-18T03:48:03;9.50;60.20
12156;DHT22;6141;49.092;8.516;2023-11-18T03:50:33;9.50;59.70
12156;DHT22;6141;49.092;8.516;2023-11-18T03:53:01;9.30;60.10
12156;DHT22;6141;49.092;8.516;2023-11-18T03:55:30;9.10;62.00
12156;DHT22;6141;49.092;8.516;2023-11-18T03:57:58;9.10;61.70
12156;DHT22;6141;49.092;8.516;2023-11-18T04:00:26;9.10;61.40
12156;DHT22;6141;49.092;8.516;2023-11-18T04:02:57;8.90;62.20
12156;DHT22;6141;49.092;8.516;2023-11-18T04:05:27;8.80;62.80
12156;DHT22;6141;49.092;8.516;2023-11-18T04:07:55;8.50;65.70
12156;DHT22;6141;49.092;8.516;2023-11-18T04:10:24;8.60;66.00
12156;DHT22;6141;49.092;8.516;2023-11-18T04:12:52;8.70;64.90
12156;DHT22;6141;49.092;8.516;2023-11-18T04:15:20;8.60;64.70
12156;DHT22;6141;49.092;8.516;2023-11-18T04:17:48;8.40;65.80
12156;DHT22;6141;49.092;8.516;2023-11-18T04:20:17;8.10;66.90
12156;DHT22;6141;49.092;8.516;2023-11-18T04:22:47;8.10;70.20
12156;DHT22;6141;49.092;8.516;2023-11-18T04:25:16;8.00;70.00
12156;DHT22;6141;49.092;8.516;2023-11-18T04:27:44;7.90;74.00
12156;DHT22;6141;49.092;8.516;2023-11-18T04:30:13;7.60;75.50
12156;DHT22;6141;49.092;8.516;2023-11-18T04:32:41;7.80;75.70
12156;DHT22;6141;49.092;8.516;2023-11-18T04:35:10;7.80;75.70
12156;DHT22;6141;49.092;8.516;2023-11-18T04:37:40;7.90;74.90
12156;DHT22;6141;49.092;8.516;2023-11-18T04:40:12;8.00;74.60
12156;DHT22;6141;49.092;8.516;2023-11-18T04:42:40;8.00;73.80
12156;DHT22;6141;49.092;8.516;2023-11-18T04:45:11;8.20;72.50
12156;DHT22;6141;49.092;8.516;2023-11-18T04:47:41;8.40;70.30
12156;DHT22;6141;49.092;8.516;2023-11-18T04:50:11;8.10;70.20
12156;DHT22;6141;49.092;8.516;2023-11-18T04:52:39;8.00;71.20
12156;DHT22;6141;49.092;8.516;2023-11-18T04:55:08;7.90;71.10
12156;DHT22;6141;49.092;8.516;2023-11-18T04:57:38;7.80;72.50
12156;DHT22;6141;49.092;8.516;2023-11-18T05:00:07;7.70;75.00
12156;DHT22;6141;49.092;8.516;2023-11-18T05:02:38;8.00;74.40
12156;DHT22;6141;49.092;8.516;2023-11-18T05:05:08;8.10;72.90
12156;DHT22;6141;49.092;8.516;2023-11-18T05:07:36;8.10;71.40
12156;DHT22;6141;49.092;8.516;2023-11-18T05:10:06;8.20;70.70
12156;DHT22;6141;49.092;8.516;2023-11-18T05:12:37;8.30;69.50
12156;DHT22;6141;49.092;8.516;2023-11-18T05:15:07;8.10;69.90
12156;DHT22;6141;49.092;8.516;2023-11-18T05:17:35;8.10;71.30
12156;DHT22;6141;49.092;8.516;2023-11-18T05:20:06;8.40;70.10
12156;DHT22;6141;49.092;8.516;2023-11-18T05:22:36;8.70;67.80
12156;DHT22;6141;49.092;8.516;2023-11-18T05:25:05;8.60;65.80
12156;DHT22;6141;49.092;8.516;2023-11-18T05:27:34;8.20;68.50
12156;DHT22;6141;49.092;8.516;2023-11-18T05:30:05;7.90;70.20
12156;DHT22;6141;49.092;8.516;2023-11-18T05:32:34;7.80;73.70
12156;DHT22;6141;49.092;8.516;2023-11-18T05:35:04;7.80;74.40
12156;DHT22;6141;49.092;8.516;2023-11-18T05:37:33;8.10;72.50
12156;DHT22;6141;49.092;8.516;2023-11-18T05:40:06;8.30;69.80
12156;DHT22;6141;49.092;8.516;2023-11-18T05:42:35;8.00;69.90
12156;DHT22;6141;49.092;8.516;2023-11-18T05:45:08;7.80;71.10
12156;DHT22;6141;49.092;8.516;2023-11-18T05:47:44;7.80;73.10
12156;DHT22;6141;49.092;8.516;2023-11-18T05:50:13;7.80;71.00
12156;DHT22;6141;49.092;8.516;2023-11-18T05:52:42;7.60;74.80
12156;DHT22;6141;49.092;8.516;2023-11-18T05:55:10;7.40;76.10
12156;DHT22;6141;49.092;8.516;2023-11-18T05:57:39;7.40;76.50
12156;DHT22;6141;49.092;8.516;2023-11-18T06:00:09;7.30;78.90
12156;DHT22;6141;49.092;8.516;2023-11-18T06:02:49;7.40;78.50
12156;DHT22;6141;49.092;8.516;2023-11-18T06:05:17;7.50;76.00
12156;DHT22;6141;49.092;8.516;2023-11-18T06:07:45;7.60;76.10
12156;DHT22;6141;49.092;8.516;2023-11-18T06:10:14;7.50;75.80
12156;DHT22;6141;49.092;8.516;2023-11-18T06:12:43;7.60;75.50
12156;DHT22;6141;49.092;8.516;2023-11-18T06:15:12;7.70;76.20
12156;DHT22;6141;49.092;8.516;2023-11-18T06:17:44;7.90;72.90
12156;DHT22;6141;49.092;8.516;2023-11-18T06:20:13;8.00;71.20
12156;DHT22;6141;49.092;8.516;2023-11-18T06:22:44;7.90;71.60
12156;DHT22;6141;49.092;8.516;2023-11-18T06:25:12;7.70;71.40
12156;DHT22;6141;49.092;8.516;2023-11-18T06:27:40;7.70;72.20
12156;DHT22;6141;49.092;8.516;2023-11-18T06:30:13;7.50;72.20
12156;DHT22;6141;49.092;8.516;2023-11-18T06:32:42;7.60;72.60
12156;DHT22;6141;49.092;8.516;2023-11-18T06:35:11;7.40;73.90
12156;DHT22;6141;49.092;8.516;2023-11-18T06:37:41;7.50;75.30
12156;DHT22;6141;49.092;8.516;2023-11-18T06:40:10;7.60;73.60
12156;DHT22;6141;49.092;8.516;2023-11-18T06:42:43;7.70;72.50
12156;DHT22;6141;49.092;8.516;2023-11-18T06:45:15;7.60;72.30
12156;DHT22;6141;49.092;8.516;2023-11-18T06:47:43;7.40;72.60
12156;DHT22;6141;49.092;8.516;2023-11-18T06:50:12;7.40;74.90
12156;DHT22;6141;49.092;8.516;2023-11-18T06:52:43;7.50;75.40
12156;DHT22;6141;49.092;8.516;2023-11-18T06:55:15;7.50;74.40
12156;DHT22;6141;49.092;8.516;2023-11-18T06:57:43;7.50;73.50
12156;DHT22;6141;49.092;8.516;2023-11-18T07:00:15;7.50;73.30
12156;DHT22;6141;49.092;8.516;2023-11-18T07:02:44;7.50;73.90
12156;DHT22;6141;49.092;8.516;2023-11-18T07:05:14;7.60;73.20
12156;DHT22;6141;49.092;8.516;2023-11-18T07:07:42;7.80;71.70
12156;DHT22;6141;49.092;8.516;2023-11-18T07:10:11;8.00;70.20
12156;DHT22;6141;49.092;8.516;2023-11-18T07:12:40;8.20;67.70
12156;DHT22;6141;49.092;8.516;2023-11-18T07:15:08;8.30;66.10
12156;DHT22;6141;49.092;8.516;2023-11-18T07:17:39;8.30;65.20
12156;DHT22;6141;49.092;8.516;2023-11-18T07:20:08;8.30;65.40
12156;DHT22;6141;49.092;8.516;2023-11-18T07:22:40;8.30;64.70
12156;DHT22;6141;49.092;8.516;2023-11-18T07:25:08;8.40;64.70
12156;DHT22;6141;49.092;8.516;2023-11-18T07:27:37;8.40;64.10
12156;DHT22;6141;49.092;8.516;2023-11-18T07:30:06;8.30;65.00
12156;DHT22;6141;49.092;8.516;2023-11-18T07:32:38;8.20;66.40
12156;DHT22;6141;49.092;8.516;2023-11-18T07:35:08;8.10;66.50
12156;DHT22;6141;49.092;8.516;2023-11-18T07:37:36;7.80;68.30
12156;DHT22;6141;49.092;8.516;2023-11-18T07:40:06;7.70;70.40
12156;DHT22;6141;49.092;8.516;2023-11-18T07:42:38;7.70;70.20
12156;DHT22;6141;49.092;8.516;2023-11-18T07:45:08;7.70;71.50
12156;DHT22;6141;49.092;8.516;2023-11-18T07:47:46;7.90;70.30
12156;DHT22;6141;49.092;8.516;2023-11-18T07:50:16;8.00;69.20
12156;DHT22;6141;49.092;8.516;2023-11-18T07:52:46;8.10;68.80
12156;DHT22;6141;49.092;8.516;2023-11-18T07:55:15;8.30;66.70
12156;DHT22;6141;49.092;8.516;2023-11-18T07:57:44;8.20;66.90
12156;DHT22;6141;49.092;8.516;2023-11-18T08:00:13;8.20;67.20
12156;DHT22;6141;49.092;8.516;2023-11-18T08:02:42;8.30;66.70
12156;DHT22;6141;49.092;8.516;2023-11-18T08:05:12;8.40;66.70
12156;DHT22;6141;49.092;8.516;2023-11-18T08:07:42;8.10;67.90
12156;DHT22;6141;49.092;8.516;2023-11-18T08:10:12;8.20;67.80
12156;DHT22;6141;49.092;8.516;2023-11-18T08:12:45;8.20;67.60
12156;DHT22;6141;49.092;8.516;2023-11-18T08:15:14;8.10;66.50
12156;DHT22;6141;49.092;8.516;2023-11-18T08:17:44;8.20;66.90
12156;DHT22;6141;49.092;8.516;2023-11-18T08:20:14;7.70;66.20
12156;DHT22;6141;49.092;8.516;2023-11-18T08:22:42;7.90;68.90
12156;DHT22;6141;49.092;8.516;2023-11-18T08:25:12;8.00;67.90
12156;DHT22;6141;49.092;8.516;2023-11-18T08:27:42;8.10;67.40
12156;DHT22;6141;49.092;8.516;2023-11-18T08:30:13;8.20;66.60
12156;DHT22;6141;49.092;8.516;2023-11-18T08:32:42;8.20;65.40
12156;DHT22;6141;49.092;8.516;2023-11-18T08:35:13;8.50;64.50
12156;DHT22;6141;49.092;8.516;2023-11-18T08:37:42;8.50;62.90
12156;DHT22;6141;49.092;8.516;2023-11-18T08:40:11;8.50;62.90
12156;DHT22;6141;49.092;8.516;2023-11-18T08:42:43;8.40;63.60
12156;DHT22;6141;49.092;8.516;2023-11-18T08:45:15;8.70;63.70
12156;DHT22;6141;49.092;8.516;2023-11-18T08:47:46;8.90;61.80
12156;DHT22;6141;49.092;8.516;2023-11-18T08:50:16;9.00;61.80
12156;DHT22;6141;49.092;8.516;2023-11-18T08:52:46;9.20;59.10
12156;DHT22;6141;49.092;8.516;2023-11-18T08:55:15;9.20;58.80
12156;DHT22;6141;49.092;8.516;2023-11-18T08:57:48;9.40;56.70
12156;DHT22;6141;49.092;8.516;2023-11-18T09:00:29;9.30;57.20
12156;DHT22;6141;49.092;8.516;2023-11-18T09:03:15;9.30;57.20
12156;DHT22;6141;49.092;8.516;2023-11-18T09:05:55;9.30;57.20
12156;DHT22;6141;49.092;8.516;2023-11-18T09:08:31;9.20;57.10
12156;DHT22;6141;49.092;8.516;2023-11-18T09:11:02;9.30;57.20
12156;DHT22;6141;49.092;8.516;2023-11-18T09:13:32;9.40;55.10
12156;DHT22;6141;49.092;8.516;2023-11-18T09:16:03;9.60;55.50
12156;DHT22;6141;49.092;8.516;2023-11-18T09:18:35;9.40;54.70
12156;DHT22;6141;49.092;8.516;2023-11-18T09:21:09;9.40;54.80
12156;DHT22;6141;49.092;8.516;2023-11-18T09:23:43;9.30;55.70
12156;DHT22;6141;49.092;8.516;2023-11-18T09:26:11;9.40;57.30
12156;DHT22;6141;49.092;8.516;2023-11-18T09:28:41;9.40;54.00
12156;DHT22;6141;49.092;8.516;2023-11-18T09:31:11;9.20;53.80
12156;DHT22;6141;49.092;8.516;2023-11-18T09:33:40;9.40;53.30
12156;DHT22;6141;49.092;8.516;2023-11-18T09:36:15;9.40;53.20
12156;DHT22;6141;49.092;8.516;2023-11-18T09:38:45;9.30;51.90
12156;DHT22;6141;49.092;8.516;2023-11-18T09:41:16;9.20;53.50
12156;DHT22;6141;49.092;8.516;2023-11-18T09:43:46;9.20;54.70
12156;DHT22;6141;49.092;8.516;2023-11-18T09:46:16;9.30;53.50
12156;DHT22;6141;49.092;8.516;2023-11-18T09:48:47;9.10;55.30
12156;DHT22;6141;49.092;8.516;2023-11-18T09:51:22;9.30;55.90
12156;DHT22;6141;49.092;8.516;2023-11-18T09:53:51;9.30;54.20
12156;DHT22;6141;49.092;8.516;2023-11-18T09:56:28;9.30;53.90
12156;DHT22;6141;49.092;8.516;2023-11-18T09:59:10;9.50;53.30
12156;DHT22;6141;49.092;8.516;2023-11-18T10:01:43;9.50;52.90
12156;DHT22;6141;49.092;8.516;2023-11-18T10:04:14;9.80;49.60
12156;DHT22;6141;49.092;8.516;2023-11-18T10:06:47;9.50;47.10
12156;DHT22;6141;49.092;8.516;2023-11-18T10:09:19;9.40;50.80
12156;DHT22;6141;49.092;8.516;2023-11-18T10:11:55;9.50;51.50
12156;DHT22;6141;49.092;8.516;2023-11-18T10:14:27;9.70;52.10
12156;DHT22;6141;49.092;8.516;2023-11-18T10:16:57;9.60;48.80
12156;DHT22;6141;49.092;8.516;2023-11-18T10:19:25;9.60;49.40
12156;DHT22;6141;49.092;8.516;2023-11-18T10:21:55;9.80;48.80
12156;DHT22;6141;49.092;8.516;2023-11-18T10:24:25;9.80;50.20
12156;DHT22;6141;49.092;8.516;2023-11-18T10:26:56;9.80;49.60
12156;DHT22;6141;49.092;8.516;2023-11-18T10:29:25;9.80;47.60
12156;DHT22;6141;49.092;8.516;2023-11-18T10:32:04;10.00;47.30
12156;DHT22;6141;49.092;8.516;2023-11-18T10:34:35;9.90;48.40
12156;DHT22;6141;49.092;8.516;2023-11-18T10:37:05;10.10;44.70
12156;DHT22;6141;49.092;8.516;2023-11-18T10:39:38;10.30;43.70
12156;DHT22;6141;49.092;8.516;2023-11-18T10:42:06;10.30;43.00
12156;DHT22;6141;49.092;8.516;2023-11-18T10:44:35;10.40;44.20
12156;DHT22;6141;49.092;8.516;2023-11-18T10:47:03;10.60;43.10
12156;DHT22;6141;49.092;8.516;2023-11-18T10:49:31;10.60;42.20
12156;DHT22;6141;49.092;8.516;2023-11-18T10:52:06;10.50;42.20
12156;DHT22;6141;49.092;8.516;2023-11-18T10:54:50;10.30;43.70
12156;DHT22;6141;49.092;8.516;2023-11-18T10:57:22;10.30;44.90
12156;DHT22;6141;49.092;8.516;2023-11-18T11:00:00;10.20;44.80
12156;DHT22;6141;49.092;8.516;2023-11-18T11:02:30;10.30;45.00
12156;DHT22;6141;49.092;8.516;2023-11-18T11:05:02;10.10;44.70
12156;DHT22;6141;49.092;8.516;2023-11-18T11:07:32;10.00;44.60
12156;DHT22;6141;49.092;8.516;2023-11-18T11:10:00;10.20;44.80
12156;DHT22;6141;49.092;8.516;2023-11-18T11:12:35;10.40;45.00
12156;DHT22;6141;49.092;8.516;2023-11-18T11:15:11;10.20;43.60
12156;DHT22;6141;49.092;8.516;2023-11-18T11:17:52;10.40;45.00
12156;DHT22;6141;49.092;8.516;2023-11-18T11:20:23;10.40;43.10
12156;DHT22;6141;49.092;8.516;2023-11-18T11:23:05;10.30;43.00
12156;DHT22;6141;49.092;8.516;2023-11-18T11:25:51;10.10;44.70
12156;DHT22;6141;49.092;8.516;2023-11-18T11:28:22;10.20;45.90
12156;DHT22;6141;49.092;8.516;2023-11-18T11:31:01;10.10;46.70
12156;DHT22;6141;49.092;8.516;2023-11-18T11:33:38;10.20;47.50
12156;DHT22;6141;49.092;8.516;2023-11-18T11:36:12;10.20;46.00
12156;DHT22;6141;49.092;8.516;2023-11-18T11:38:44;10.30;45.00
12156;DHT22;6141;49.092;8.516;2023-11-18T11:41:14;10.40;45.70
12156;DHT22;6141;49.092;8.516;2023-11-18T11:43:47;10.20;46.00
12156;DHT22;6141;49.092;8.516;2023-11-18T11:46:16;10.20;44.80
12156;DHT22;6141;49.092;8.516;2023-11-18T11:48:50;10.00;44.60
12156;DHT22;6141;49.092;8.516;2023-11-18T11:51:24;10.40;45.00
12156;DHT22;6141;49.092;8.516;2023-11-18T11:54:04;10.50;45.10
12156;DHT22;6141;49.092;8.516;2023-11-18T11:56:42;10.40;45.00
12156;DHT22;6141;49.092;8.516;2023-11-18T11:59:15;10.20;44.80
12156;DHT22;6141;49.092;8.516;2023-11-18T12:01:44;10.10;45.80
12156;DHT22;6141;49.092;8.516;2023-11-18T12:04:23;10.20;45.90
12156;DHT22;6141;49.092;8.516;2023-11-18T12:06:56;10.10;45.70
12156;DHT22;6141;49.092;8.516;2023-11-18T12:09:40;10.00;47.90
12156;DHT22;6141;49.092;8.516;2023-11-18T12:12:17;10.10;48.50
12156;DHT22;6141;49.092;8.516;2023-11-18T12:14:50;10.10;47.80
12156;DHT22;6141;49.092;8.516;2023-11-18T12:17:19;10.20;46.30
12156;DHT22;6141;49.092;8.516;2023-11-18T12:19:55;10.30;48.30
12156;DHT22;6141;49.092;8.516;2023-11-18T12:22:27;10.40;46.90
12156;DHT22;6141;49.092;8.516;2023-11-18T12:25:32;10.30;44.90
12156;DHT22;6141;49.092;8.516;2023-11-18T12:28:07;10.30;46.60
12156;DHT22;6141;49.092;8.516;2023-11-18T12:30:40;10.40;44.80
12156;DHT22;6141;49.092;8.516;2023-11-18T12:33:19;10.30;44.90
12156;DHT22;6141;49.092;8.516;2023-11-18T12:39:20;10.60;45.80
12156;DHT22;6141;49.092;8.516;2023-11-18T12:42:01;10.60;44.40
12156;DHT22;6141;49.092;8.516;2023-11-18T12:44:37;10.30;44.90
12156;DHT22;6141;49.092;8.516;2023-11-18T12:47:08;10.30;46.10
12156;DHT22;6141;49.092;8.516;2023-11-18T12:49:45;10.20;46.50
12156;DHT22;6141;49.092;8.516;2023-11-18T12:52:17;9.90;49.00
12156;DHT22;6141;49.092;8.516;2023-11-18T12:54:46;9.90;46.90
12156;DHT22;6141;49.092;8.516;2023-11-18T12:57:21;9.90;47.90
12156;DHT22;6141;49.092;8.516;2023-11-18T12:59:49;10.20;47.70
12156;DHT22;6141;49.092;8.516;2023-11-18T13:02:18;10.40;45.60
12156;DHT22;6141;49.092;8.516;2023-11-18T13:04:47;10.50;45.10
12156;DHT22;6141;49.092;8.516;2023-11-18T13:07:17;10.80;44.70
12156;DHT22;6141;49.092;8.516;2023-11-18T13:09:46;10.80;44.60
12156;DHT22;6141;49.092;8.516;2023-11-18T13:12:15;11.00;43.30
12156;DHT22;6141;49.092;8.516;2023-11-18T13:14:47;11.00;43.30
12156;DHT22;6141;49.092;8.516;2023-11-18T13:17:16;10.90;43.60
12156;DHT22;6141;49.092;8.516;2023-11-18T13:19:45;10.70;43.70
12156;DHT22;6141;49.092;8.516;2023-11-18T13:22:15;10.60;45.20
12156;DHT22;6141;49.092;8.516;2023-11-18T13:24:46;10.70;45.30
12156;DHT22;6141;49.092;8.516;2023-11-18T13:27:15;10.60;46.40
12156;DHT22;6141;49.092;8.516;2023-11-18T13:29:45;10.60;46.50
12156;DHT22;6141;49.092;8.516;2023-11-18T13:32:17;10.60;45.70
12156;DHT22;6141;49.092;8.516;2023-11-18T13:34:50;10.60;46.20
12156;DHT22;6141;49.092;8.516;2023-11-18T13:37:19;10.50;45.10
12156;DHT22;6141;49.092;8.516;2023-11-18T13:39:53;10.50;45.10
12156;DHT22;6141;49.092;8.516;2023-11-18T13:42:23;10.40;47.10
12156;DHT22;6141;49.092;8.516;2023-11-18T13:44:53;10.30;47.60
12156;DHT22;6141;49.092;8.516;2023-11-18T13:47:28;10.40;48.10
12156;DHT22;6141;49.092;8.516;2023-11-18T13:49:58;10.50;47.70
12156;DHT22;6141;49.092;8.516;2023-11-18T13:52:27;10.60;47.50
12156;DHT22;6141;49.092;8.516;2023-11-18T13:54:58;10.50;46.70
12156;DHT22;6141;49.092;8.516;2023-11-18T13:57:27;10.60;46.10
12156;DHT22;6141;49.092;8.516;2023-11-18T13:59:55;10.70;46.80
12156;DHT22;6141;49.092;8.516;2023-11-18T14:02:23;10.70;46.60
12156;DHT22;6141;49.092;8.516;2023-11-18T14:04:54;10.90;46.20
12156;DHT22;6141;49.092;8.516;2023-11-18T14:07:24;11.20;45.20
12156;DHT22;6141;49.092;8.516;2023-11-18T14:09:52;11.30;44.40
12156;DHT22;6141;49.092;8.516;2023-11-18T14:12:24;11.10;44.30
12156;DHT22;6141;49.092;8.516;2023-11-18T14:14:54;10.80;45.40
12156;DHT22;6141;49.092;8.516;2023-11-18T14:17:23;10.20;49.40
12156;DHT22;6141;49.092;8.516;2023-11-18T14:19:52;9.90;52.40
12156;DHT22;6141;49.092;8.516;2023-11-18T14:22:20;10.20;51.00
12156;DHT22;6141;49.092;8.516;2023-11-18T14:24:50;10.30;50.30
12156;DHT22;6141;49.092;8.516;2023-11-18T14:27:18;10.60;48.50
12156;DHT22;6141;49.092;8.516;2023-11-18T14:29:46;10.80;46.90
12156;DHT22;6141;49.092;8.516;2023-11-18T14:32:14;10.80;46.80
12156;DHT22;6141;49.092;8.516;2023-11-18T14:34:44;11.00;47.40
12156;DHT22;6141;49.092;8.516;2023-11-18T14:37:17;11.10;45.90
12156;DHT22;6141;49.092;8.516;2023-11-18T14:39:46;10.80;45.40
12156;DHT22;6141;49.092;8.516;2023-11-18T14:42:14;10.90;45.60
12156;DHT22;6141;49.092;8.516;2023-11-18T14:44:43;10.80;45.40
12156;DHT22;6141;49.092;8.516;2023-11-18T14:47:11;10.80;46.40
12156;DHT22;6141;49.092;8.516;2023-11-18T14:49:41;11.00;47.20
12156;DHT22;6141;49.092;8.516;2023-11-18T14:52:09;11.10;47.40
12156;DHT22;6141;49.092;8.516;2023-11-18T14:54:39;11.20;46.60
12156;DHT22;6141;49.092;8.516;2023-11-18T14:57:07;11.60;45.90
12156;DHT22;6141;49.092;8.516;2023-11-18T14:59:36;11.60;44.20
12156;DHT22;6141;49.092;8.516;2023-11-18T15:02:04;11.50;44.70
12156;DHT22;6141;49.092;8.516;2023-11-18T15:04:35;11.40;45.30
12156;DHT22;6141;49.092;8.516;2023-11-18T15:07:03;11.40;46.00
12156;DHT22;6141;49.092;8.516;2023-11-18T15:09:32;11.40;46.00
12156;DHT22;6141;49.092;8.516;2023-11-18T15:12:01;11.40;45.90
12156;DHT22;6141;49.092;8.516;2023-11-18T15:14:30;11.40;46.10
12156;DHT22;6141;49.092;8.516;2023-11-18T15:16:59;11.40;45.50
12156;DHT22;6141;49.092;8.516;2023-11-18T15:19:28;11.40;46.00
12156;DHT22;6141;49.092;8.516;2023-11-18T15:22:00;11.50;46.10
12156;DHT22;6141;49.092;8.516;2023-11-18T15:24:29;11.40;46.00
12156;DHT22;6141;49.092;8.516;2023-11-18T15:27:00;11.50;46.10
12156;DHT22;6141;49.092;8.516;2023-11-18T15:29:30;11.40;46.00
12156;DHT22;6141;49.092;8.516;2023-11-18T15:32:05;11.40;46.00
12156;DHT22;6141;49.092;8.516;2023-11-18T15:34:35;11.50;46.10
12156;DHT22;6141;49.092;8.516;2023-11-18T15:37:03;11.70;44.50
12156;DHT22;6141;49.092;8.516;2023-11-18T15:39:31;11.70;44.60
12156;DHT22;6141;49.092;8.516;2023-11-18T15:42:01;11.50;45.20
12156;DHT22;6141;49.092;8.516;2023-11-18T15:44:32;11.50;45.30
12156;DHT22;6141;49.092;8.516;2023-11-18T15:47:01;11.40;46.00
12156;DHT22;6141;49.092;8.516;2023-11-18T15:49:30;11.40;46.00
12156;DHT22;6141;49.092;8.516;2023-11-18T15:51:58;11.30;45.90
12156;DHT22;6141;49.092;8.516;2023-11-18T15:54:26;11.40;46.00
12156;DHT22;6141;49.092;8.516;2023-11-18T15:56:55;11.40;46.00
12156;DHT22;6141;49.092;8.516;2023-11-18T15:59:27;11.50;45.60
12156;DHT22;6141;49.092;8.516;2023-11-18T16:01:55;11.60;46.20
12156;DHT22;6141;49.092;8.516;2023-11-18T16:04:24;11.80;44.50
12156;DHT22;6141;49.092;8.516;2023-11-18T16:06:52;11.70;44.00
12156;DHT22;6141;49.092;8.516;2023-11-18T16:09:20;11.60;44.70
12156;DHT22;6141;49.092;8.516;2023-11-18T16:11:49;11.10;45.70
12156;DHT22;6141;49.092;8.516;2023-11-18T16:14:17;11.10;47.10
12156;DHT22;6141;49.092;8.516;2023-11-18T16:16:49;11.10;47.20
12156;DHT22;6141;49.092;8.516;2023-11-18T16:19:18;11.00;48.00
12156;DHT22;6141;49.092;8.516;2023-11-18T16:21:47;10.90;49.10
12156;DHT22;6141;49.092;8.516;2023-11-18T16:24:15;11.00;48.60